Terminal Aerodrome Forecast
Issued by NWS Louisville, KY

Home | Current Version | Previous Version | Text Only | Print | Product List | Glossary On
Versions: 1 2 3 4 5 6 7 8 9 10 11 12 13 14 15 16 17 18 19 20 21 22
000
FTUS43 KLMK 190159 AAA
TAFSDF
TAF AMD
KSDF 190159Z 1902/2006 13006KT P6SM BKN250
     FM190500 17007KT P6SM SCT030 BKN045 WS020/20035KT
     FM190800 19011KT P6SM VCSH OVC015 WS020/21040KT
      TEMPO 1909/1913 4SM -SHRA OVC007
     FM191400 20014G22KT P6SM OVC012
     FM191600 20015G24KT P6SM BKN022
     FM191900 20014G22KT P6SM SCT025 BKN040
     FM200300 19011G16KT P6SM SCT025 BKN200 WS020/20045KT=

USA.gov is the U.S. government's official web portal to all federal, state and local government web resources and services.